sensor_id;sensor_type;location;lat;lon;timestamp;P1;durP1;ratioP1;P2;durP2;ratioP2
72109;SDS011;59983;52.010;5.420;2023-09-18T00:00:31;15.10;;;13.48;;
72109;SDS011;59983;52.010;5.420;2023-09-18T00:02:59;15.68;;;13.98;;
72109;SDS011;59983;52.010;5.420;2023-09-18T00:05:29;15.93;;;13.10;;
72109;SDS011;59983;52.010;5.420;2023-09-18T00:07:56;13.15;;;11.90;;
72109;SDS011;59983;52.010;5.420;2023-09-18T00:10:22;13.13;;;11.83;;
72109;SDS011;59983;52.010;5.420;2023-09-18T00:12:49;13.80;;;12.50;;
72109;SDS011;59983;52.010;5.420;2023-09-18T00:15:15;16.60;;;13.30;;
72109;SDS011;59983;52.010;5.420;2023-09-18T00:17:42;13.98;;;12.30;;
72109;SDS011;59983;52.010;5.420;2023-09-18T00:20:09;15.00;;;13.52;;
72109;SDS011;59983;52.010;5.420;2023-09-18T00:22:36;13.97;;;12.53;;
72109;SDS011;59983;52.010;5.420;2023-09-18T00:25:02;19.00;;;13.40;;
72109;SDS011;59983;52.010;5.420;2023-09-18T00:27:29;14.75;;;13.40;;
72109;SDS011;59983;52.010;5.420;2023-09-18T00:29:56;15.30;;;13.35;;
72109;SDS011;59983;52.010;5.420;2023-09-18T00:32:22;14.25;;;12.77;;
72109;SDS011;59983;52.010;5.420;2023-09-18T00:34:49;13.33;;;12.17;;
72109;SDS011;59983;52.010;5.420;2023-09-18T00:37:16;15.07;;;13.38;;
72109;SDS011;59983;52.010;5.420;2023-09-18T00:39:43;14.63;;;12.32;;
72109;SDS011;59983;52.010;5.420;2023-09-18T00:42:10;12.27;;;11.27;;
72109;SDS011;59983;52.010;5.420;2023-09-18T00:44:42;16.45;;;12.90;;
72109;SDS011;59983;52.010;5.420;2023-09-18T00:47:08;16.27;;;13.17;;
72109;SDS011;59983;52.010;5.420;2023-09-18T00:49:36;14.38;;;12.90;;
72109;SDS011;59983;52.010;5.420;2023-09-18T00:52:05;18.10;;;12.77;;
72109;SDS011;59983;52.010;5.420;2023-09-18T00:54:34;14.68;;;13.30;;
72109;SDS011;59983;52.010;5.420;2023-09-18T00:57:02;15.38;;;13.93;;
72109;SDS011;59983;52.010;5.420;2023-09-18T00:59:29;15.27;;;13.80;;
72109;SDS011;59983;52.010;5.420;2023-09-18T01:01:57;17.08;;;13.55;;
72109;SDS011;59983;52.010;5.420;2023-09-18T01:04:24;13.40;;;12.10;;
72109;SDS011;59983;52.010;5.420;2023-09-18T01:06:55;14.40;;;13.00;;
72109;SDS011;59983;52.010;5.420;2023-09-18T01:09:23;14.07;;;12.68;;
72109;SDS011;59983;52.010;5.420;2023-09-18T01:12:08;18.23;;;13.50;;
72109;SDS011;59983;52.010;5.420;2023-09-18T01:17:35;14.15;;;12.75;;
72109;SDS011;59983;52.010;5.420;2023-09-18T01:20:10;13.73;;;12.20;;
72109;SDS011;59983;52.010;5.420;2023-09-18T01:22:38;14.05;;;12.55;;
72109;SDS011;59983;52.010;5.420;2023-09-18T01:25:05;16.93;;;12.63;;
72109;SDS011;59983;52.010;5.420;2023-09-18T01:27:33;15.10;;;13.55;;
72109;SDS011;59983;52.010;5.420;2023-09-18T01:30:00;20.88;;;14.50;;
72109;SDS011;59983;52.010;5.420;2023-09-18T01:32:27;14.63;;;13.10;;
72109;SDS011;59983;52.010;5.420;2023-09-18T01:34:57;16.85;;;14.43;;
72109;SDS011;59983;52.010;5.420;2023-09-18T01:37:27;14.73;;;12.57;;
72109;SDS011;59983;52.010;5.420;2023-09-18T01:39:55;17.35;;;13.23;;
72109;SDS011;59983;52.010;5.420;2023-09-18T01:42:28;17.05;;;12.30;;
72109;SDS011;59983;52.010;5.420;2023-09-18T01:44:55;14.90;;;13.23;;
72109;SDS011;59983;52.010;5.420;2023-09-18T01:47:22;14.80;;;13.32;;
72109;SDS011;59983;52.010;5.420;2023-09-18T01:49:49;13.37;;;12.07;;
72109;SDS011;59983;52.010;5.420;2023-09-18T01:52:16;15.32;;;12.88;;
72109;SDS011;59983;52.010;5.420;2023-09-18T01:54:43;17.65;;;13.45;;
72109;SDS011;59983;52.010;5.420;2023-09-18T01:57:10;14.20;;;12.90;;
72109;SDS011;59983;52.010;5.420;2023-09-18T01:59:38;20.40;;;14.10;;
72109;SDS011;59983;52.010;5.420;2023-09-18T02:02:05;13.80;;;12.37;;
72109;SDS011;59983;52.010;5.420;2023-09-18T02:04:38;14.60;;;13.07;;
72109;SDS011;59983;52.010;5.420;2023-09-18T02:07:25;14.82;;;13.32;;
72109;SDS011;59983;52.010;5.420;2023-09-18T02:09:52;13.05;;;11.70;;
72109;SDS011;59983;52.010;5.420;2023-09-18T02:12:19;13.98;;;11.75;;
72109;SDS011;59983;52.010;5.420;2023-09-18T02:14:46;14.60;;;11.43;;
72109;SDS011;59983;52.010;5.420;2023-09-18T02:17:12;15.07;;;12.70;;
72109;SDS011;59983;52.010;5.420;2023-09-18T02:19:39;18.73;;;14.50;;
72109;SDS011;59983;52.010;5.420;2023-09-18T02:22:06;19.77;;;14.85;;
72109;SDS011;59983;52.010;5.420;2023-09-18T02:24:33;15.73;;;14.18;;
72109;SDS011;59983;52.010;5.420;2023-09-18T02:27:00;18.10;;;15.43;;
72109;SDS011;59983;52.010;5.420;2023-09-18T02:29:30;17.23;;;15.35;;
72109;SDS011;59983;52.010;5.420;2023-09-18T02:31:57;18.73;;;15.77;;
72109;SDS011;59983;52.010;5.420;2023-09-18T02:34:23;20.35;;;16.17;;
72109;SDS011;59983;52.010;5.420;2023-09-18T02:36:50;17.00;;;15.20;;
72109;SDS011;59983;52.010;5.420;2023-09-18T02:39:17;19.80;;;15.63;;
72109;SDS011;59983;52.010;5.420;2023-09-18T02:41:43;17.77;;;15.80;;
72109;SDS011;59983;52.010;5.420;2023-09-18T02:44:10;17.45;;;15.43;;
72109;SDS011;59983;52.010;5.420;2023-09-18T02:46:37;19.70;;;15.18;;
72109;SDS011;59983;52.010;5.420;2023-09-18T02:49:04;20.15;;;15.85;;
72109;SDS011;59983;52.010;5.420;2023-09-18T02:51:31;19.37;;;16.47;;
72109;SDS011;59983;52.010;5.420;2023-09-18T02:53:58;20.38;;;16.13;;
72109;SDS011;59983;52.010;5.420;2023-09-18T02:56:24;16.67;;;14.95;;
72109;SDS011;59983;52.010;5.420;2023-09-18T02:58:51;15.95;;;14.23;;
72109;SDS011;59983;52.010;5.420;2023-09-18T03:01:18;20.60;;;15.60;;
72109;SDS011;59983;52.010;5.420;2023-09-18T03:03:44;20.50;;;15.23;;
72109;SDS011;59983;52.010;5.420;2023-09-18T03:06:11;22.40;;;16.95;;
72109;SDS011;59983;52.010;5.420;2023-09-18T03:08:38;18.55;;;15.70;;
72109;SDS011;59983;52.010;5.420;2023-09-18T03:11:10;18.55;;;15.95;;
72109;SDS011;59983;52.010;5.420;2023-09-18T03:13:42;17.67;;;15.93;;
72109;SDS011;59983;52.010;5.420;2023-09-18T03:16:11;18.27;;;15.50;;
72109;SDS011;59983;52.010;5.420;2023-09-18T03:18:38;16.20;;;14.63;;
72109;SDS011;59983;52.010;5.420;2023-09-18T03:21:05;21.70;;;16.00;;
72109;SDS011;59983;52.010;5.420;2023-09-18T03:23:31;18.50;;;16.50;;
72109;SDS011;59983;52.010;5.420;2023-09-18T03:25:58;22.92;;;17.10;;
72109;SDS011;59983;52.010;5.420;2023-09-18T03:28:26;22.13;;;17.97;;
72109;SDS011;59983;52.010;5.420;2023-09-18T03:30:52;21.85;;;16.25;;
72109;SDS011;59983;52.010;5.420;2023-09-18T03:33:19;20.25;;;17.10;;
72109;SDS011;59983;52.010;5.420;2023-09-18T03:35:49;19.27;;;16.98;;
72109;SDS011;59983;52.010;5.420;2023-09-18T03:38:17;19.45;;;16.30;;
72109;SDS011;59983;52.010;5.420;2023-09-18T03:40:44;20.40;;;18.27;;
72109;SDS011;59983;52.010;5.420;2023-09-18T03:43:10;23.33;;;18.63;;
72109;SDS011;59983;52.010;5.420;2023-09-18T03:45:39;19.15;;;17.13;;
72109;SDS011;59983;52.010;5.420;2023-09-18T03:48:08;22.30;;;16.90;;
72109;SDS011;59983;52.010;5.420;2023-09-18T03:50:36;19.42;;;17.35;;
72109;SDS011;59983;52.010;5.420;2023-09-18T03:53:03;19.03;;;15.33;;
72109;SDS011;59983;52.010;5.420;2023-09-18T03:55:29;19.88;;;14.20;;
72109;SDS011;59983;52.010;5.420;2023-09-18T03:57:56;18.55;;;15.27;;
72109;SDS011;59983;52.010;5.420;2023-09-18T04:00:23;17.08;;;15.02;;
72109;SDS011;59983;52.010;5.420;2023-09-18T04:02:50;17.98;;;15.20;;
72109;SDS011;59983;52.010;5.420;2023-09-18T04:05:16;17.27;;;14.80;;
72109;SDS011;59983;52.010;5.420;2023-09-18T04:07:43;16.63;;;14.90;;
72109;SDS011;59983;52.010;5.420;2023-09-18T04:10:16;17.95;;;16.15;;
72109;SDS011;59983;52.010;5.420;2023-09-18T04:12:50;17.30;;;15.38;;
72109;SDS011;59983;52.010;5.420;2023-09-18T04:15:17;15.60;;;13.93;;
72109;SDS011;59983;52.010;5.420;2023-09-18T04:17:45;17.50;;;14.17;;
72109;SDS011;59983;52.010;5.420;2023-09-18T04:20:12;17.92;;;15.10;;
72109;SDS011;59983;52.010;5.420;2023-09-18T04:22:46;18.02;;;14.80;;
72109;SDS011;59983;52.010;5.420;2023-09-18T04:25:17;15.18;;;13.02;;
72109;SDS011;59983;52.010;5.420;2023-09-18T04:27:45;15.52;;;14.05;;
72109;SDS011;59983;52.010;5.420;2023-09-18T04:30:12;16.93;;;14.87;;
72109;SDS011;59983;52.010;5.420;2023-09-18T04:32:40;15.43;;;13.40;;
72109;SDS011;59983;52.010;5.420;2023-09-18T04:35:07;17.52;;;13.82;;
72109;SDS011;59983;52.010;5.420;2023-09-18T04:37:35;15.50;;;14.00;;
72109;SDS011;59983;52.010;5.420;2023-09-18T04:40:04;17.48;;;14.02;;
72109;SDS011;59983;52.010;5.420;2023-09-18T04:42:35;21.30;;;14.03;;
72109;SDS011;59983;52.010;5.420;2023-09-18T04:45:03;16.48;;;14.02;;
72109;SDS011;59983;52.010;5.420;2023-09-18T04:47:30;28.20;;;15.73;;
72109;SDS011;59983;52.010;5.420;2023-09-18T04:49:57;22.27;;;14.93;;
72109;SDS011;59983;52.010;5.420;2023-09-18T04:52:23;21.50;;;16.60;;
72109;SDS011;59983;52.010;5.420;2023-09-18T04:54:50;22.83;;;16.13;;
72109;SDS011;59983;52.010;5.420;2023-09-18T04:57:16;26.10;;;15.98;;
72109;SDS011;59983;52.010;5.420;2023-09-18T04:59:45;21.48;;;17.50;;
72109;SDS011;59983;52.010;5.420;2023-09-18T05:02:11;23.60;;;16.30;;
72109;SDS011;59983;52.010;5.420;2023-09-18T05:04:39;24.75;;;16.65;;
72109;SDS011;59983;52.010;5.420;2023-09-18T05:07:05;27.03;;;15.30;;
72109;SDS011;59983;52.010;5.420;2023-09-18T05:09:32;16.95;;;14.68;;
72109;SDS011;59983;52.010;5.420;2023-09-18T05:11:59;15.45;;;13.38;;
72109;SDS011;59983;52.010;5.420;2023-09-18T05:14:25;16.83;;;12.07;;
72109;SDS011;59983;52.010;5.420;2023-09-18T05:16:52;16.98;;;11.73;;
72109;SDS011;59983;52.010;5.420;2023-09-18T05:19:19;15.37;;;10.87;;
72109;SDS011;59983;52.010;5.420;2023-09-18T05:21:45;14.05;;;10.85;;
72109;SDS011;59983;52.010;5.420;2023-09-18T05:24:12;13.57;;;11.10;;
72109;SDS011;59983;52.010;5.420;2023-09-18T05:26:39;17.55;;;11.63;;
72109;SDS011;59983;52.010;5.420;2023-09-18T05:29:06;11.60;;;10.40;;
72109;SDS011;59983;52.010;5.420;2023-09-18T05:31:32;17.13;;;11.40;;
72109;SDS011;59983;52.010;5.420;2023-09-18T05:33:59;16.88;;;12.60;;
72109;SDS011;59983;52.010;5.420;2023-09-18T05:36:25;17.10;;;12.38;;
72109;SDS011;59983;52.010;5.420;2023-09-18T05:38:55;14.27;;;12.10;;
72109;SDS011;59983;52.010;5.420;2023-09-18T05:41:22;13.57;;;11.77;;
72109;SDS011;59983;52.010;5.420;2023-09-18T05:43:52;14.37;;;11.87;;
72109;SDS011;59983;52.010;5.420;2023-09-18T05:46:19;15.55;;;12.50;;
72109;SDS011;59983;52.010;5.420;2023-09-18T05:48:46;13.38;;;11.98;;
72109;SDS011;59983;52.010;5.420;2023-09-18T05:51:13;12.43;;;11.13;;
72109;SDS011;59983;52.010;5.420;2023-09-18T05:53:39;20.48;;;13.10;;
72109;SDS011;59983;52.010;5.420;2023-09-18T05:56:06;13.00;;;11.60;;
72109;SDS011;59983;52.010;5.420;2023-09-18T05:58:33;13.20;;;11.90;;
72109;SDS011;59983;52.010;5.420;2023-09-18T06:01:01;12.10;;;10.93;;
72109;SDS011;59983;52.010;5.420;2023-09-18T06:03:27;14.45;;;13.10;;
72109;SDS011;59983;52.010;5.420;2023-09-18T06:05:57;14.07;;;12.55;;
72109;SDS011;59983;52.010;5.420;2023-09-18T06:08:23;15.27;;;12.70;;
72109;SDS011;59983;52.010;5.420;2023-09-18T06:10:52;17.65;;;11.77;;
72109;SDS011;59983;52.010;5.420;2023-09-18T06:13:20;16.08;;;13.05;;
72109;SDS011;59983;52.010;5.420;2023-09-18T06:15:47;17.45;;;13.00;;
72109;SDS011;59983;52.010;5.420;2023-09-18T06:18:14;14.23;;;12.73;;
72109;SDS011;59983;52.010;5.420;2023-09-18T06:20:41;21.03;;;12.93;;
72109;SDS011;59983;52.010;5.420;2023-09-18T06:23:10;15.63;;;12.10;;
72109;SDS011;59983;52.010;5.420;2023-09-18T06:25:36;15.38;;;12.52;;
72109;SDS011;59983;52.010;5.420;2023-09-18T06:28:04;16.38;;;12.98;;
72109;SDS011;59983;52.010;5.420;2023-09-18T06:30:31;15.93;;;13.15;;
72109;SDS011;59983;52.010;5.420;2023-09-18T06:33:02;17.40;;;12.67;;
72109;SDS011;59983;52.010;5.420;2023-09-18T06:35:30;20.40;;;11.75;;
72109;SDS011;59983;52.010;5.420;2023-09-18T06:37:57;16.42;;;12.77;;
72109;SDS011;59983;52.010;5.420;2023-09-18T06:40:25;13.32;;;12.02;;
72109;SDS011;59983;52.010;5.420;2023-09-18T06:42:51;16.10;;;13.23;;
72109;SDS011;59983;52.010;5.420;2023-09-18T06:45:24;15.03;;;12.33;;
72109;SDS011;59983;52.010;5.420;2023-09-18T06:47:51;15.63;;;12.75;;
72109;SDS011;59983;52.010;5.420;2023-09-18T06:50:19;15.68;;;12.50;;
72109;SDS011;59983;52.010;5.420;2023-09-18T06:52:46;17.75;;;12.73;;
72109;SDS011;59983;52.010;5.420;2023-09-18T06:55:12;16.40;;;12.98;;
72109;SDS011;59983;52.010;5.420;2023-09-18T06:57:40;15.63;;;12.17;;
72109;SDS011;59983;52.010;5.420;2023-09-18T07:00:07;16.20;;;12.70;;
72109;SDS011;59983;52.010;5.420;2023-09-18T07:02:34;11.00;;;9.95;;
72109;SDS011;59983;52.010;5.420;2023-09-18T07:05:01;13.60;;;10.70;;
72109;SDS011;59983;52.010;5.420;2023-09-18T07:07:28;12.15;;;10.63;;
72109;SDS011;59983;52.010;5.420;2023-09-18T07:09:54;12.70;;;11.40;;
72109;SDS011;59983;52.010;5.420;2023-09-18T07:12:24;13.10;;;10.68;;
72109;SDS011;59983;52.010;5.420;2023-09-18T07:14:50;11.70;;;10.52;;
72109;SDS011;59983;52.010;5.420;2023-09-18T07:17:17;11.82;;;10.60;;
72109;SDS011;59983;52.010;5.420;2023-09-18T07:19:44;13.02;;;11.07;;
72109;SDS011;59983;52.010;5.420;2023-09-18T07:22:10;11.13;;;10.13;;
72109;SDS011;59983;52.010;5.420;2023-09-18T07:24:37;12.05;;;10.38;;
72109;SDS011;59983;52.010;5.420;2023-09-18T07:27:07;15.00;;;10.40;;
72109;SDS011;59983;52.010;5.420;2023-09-18T07:29:33;11.23;;;10.18;;
72109;SDS011;59983;52.010;5.420;2023-09-18T07:32:01;12.30;;;9.98;;
72109;SDS011;59983;52.010;5.420;2023-09-18T07:34:28;11.70;;;9.40;;
72109;SDS011;59983;52.010;5.420;2023-09-18T07:36:54;11.63;;;9.45;;
72109;SDS011;59983;52.010;5.420;2023-09-18T07:39:24;9.15;;;8.35;;
72109;SDS011;59983;52.010;5.420;2023-09-18T07:41:50;10.38;;;9.27;;
72109;SDS011;59983;52.010;5.420;2023-09-18T07:44:19;11.80;;;8.82;;
72109;SDS011;59983;52.010;5.420;2023-09-18T07:46:47;8.87;;;8.07;;
72109;SDS011;59983;52.010;5.420;2023-09-18T07:49:14;9.25;;;8.13;;
72109;SDS011;59983;52.010;5.420;2023-09-18T07:51:40;8.88;;;8.20;;
72109;SDS011;59983;52.010;5.420;2023-09-18T07:54:07;11.73;;;8.30;;
72109;SDS011;59983;52.010;5.420;2023-09-18T07:56:34;8.57;;;7.85;;
72109;SDS011;59983;52.010;5.420;2023-09-18T07:59:02;8.27;;;7.37;;
72109;SDS011;59983;52.010;5.420;2023-09-18T08:01:29;9.25;;;8.15;;
72109;SDS011;59983;52.010;5.420;2023-09-18T08:03:58;8.52;;;7.60;;
72109;SDS011;59983;52.010;5.420;2023-09-18T08:06:27;9.40;;;8.43;;
72109;SDS011;59983;52.010;5.420;2023-09-18T08:08:54;8.73;;;6.90;;
72109;SDS011;59983;52.010;5.420;2023-09-18T08:11:21;9.47;;;6.47;;
72109;SDS011;59983;52.010;5.420;2023-09-18T08:13:48;8.02;;;7.00;;
72109;SDS011;59983;52.010;5.420;2023-09-18T08:16:15;7.20;;;6.70;;
72109;SDS011;59983;52.010;5.420;2023-09-18T08:18:43;8.02;;;6.63;;
72109;SDS011;59983;52.010;5.420;2023-09-18T08:21:10;7.55;;;6.82;;
72109;SDS011;59983;52.010;5.420;2023-09-18T08:23:39;9.13;;;6.93;;
72109;SDS011;59983;52.010;5.420;2023-09-18T08:26:06;7.25;;;6.47;;
72109;SDS011;59983;52.010;5.420;2023-09-18T08:28:33;10.25;;;6.68;;
72109;SDS011;59983;52.010;5.420;2023-09-18T08:31:03;6.90;;;6.30;;
72109;SDS011;59983;52.010;5.420;2023-09-18T08:33:30;6.70;;;6.15;;
72109;SDS011;59983;52.010;5.420;2023-09-18T08:35:56;11.97;;;5.63;;
72109;SDS011;59983;52.010;5.420;2023-09-18T08:38:23;9.48;;;6.60;;
72109;SDS011;59983;52.010;5.420;2023-09-18T08:40:50;6.00;;;5.50;;
72109;SDS011;59983;52.010;5.420;2023-09-18T08:43:19;7.60;;;5.60;;
72109;SDS011;59983;52.010;5.420;2023-09-18T08:45:47;6.50;;;6.00;;
72109;SDS011;59983;52.010;5.420;2023-09-18T08:48:20;5.27;;;4.83;;
72109;SDS011;59983;52.010;5.420;2023-09-18T08:50:47;5.20;;;4.80;;
72109;SDS011;59983;52.010;5.420;2023-09-18T08:53:15;4.68;;;4.13;;
72109;SDS011;59983;52.010;5.420;2023-09-18T08:55:41;5.50;;;5.10;;
72109;SDS011;59983;52.010;5.420;2023-09-18T08:58:08;4.68;;;4.18;;
72109;SDS011;59983;52.010;5.420;2023-09-18T09:00:38;9.57;;;4.37;;
72109;SDS011;59983;52.010;5.420;2023-09-18T09:03:05;6.88;;;4.45;;
72109;SDS011;59983;52.010;5.420;2023-09-18T09:05:32;4.10;;;3.70;;
72109;SDS011;59983;52.010;5.420;2023-09-18T09:07:59;5.32;;;4.60;;
72109;SDS011;59983;52.010;5.420;2023-09-18T09:10:26;4.72;;;4.35;;
72109;SDS011;59983;52.010;5.420;2023-09-18T09:12:57;3.73;;;3.37;;
72109;SDS011;59983;52.010;5.420;2023-09-18T09:15:26;6.20;;;4.63;;
72109;SDS011;59983;52.010;5.420;2023-09-18T09:18:02;4.65;;;4.25;;
72109;SDS011;59983;52.010;5.420;2023-09-18T09:20:33;7.03;;;3.47;;
72109;SDS011;59983;52.010;5.420;2023-09-18T09:23:02;4.38;;;3.97;;
72109;SDS011;59983;52.010;5.420;2023-09-18T09:25:31;9.57;;;4.27;;
72109;SDS011;59983;52.010;5.420;2023-09-18T09:28:00;4.15;;;3.75;;
72109;SDS011;59983;52.010;5.420;2023-09-18T09:30:29;5.30;;;3.92;;
72109;SDS011;59983;52.010;5.420;2023-09-18T09:32:57;4.80;;;3.83;;
72109;SDS011;59983;52.010;5.420;2023-09-18T09:35:32;3.60;;;3.40;;
72109;SDS011;59983;52.010;5.420;2023-09-18T09:38:07;4.80;;;4.03;;
72109;SDS011;59983;52.010;5.420;2023-09-18T09:40:35;3.83;;;3.50;;
72109;SDS011;59983;52.010;5.420;2023-09-18T09:43:07;4.50;;;4.10;;
72109;SDS011;59983;52.010;5.420;2023-09-18T09:45:35;6.03;;;3.92;;
72109;SDS011;59983;52.010;5.420;2023-09-18T09:48:03;7.10;;;3.25;;
72109;SDS011;59983;52.010;5.420;2023-09-18T09:50:33;6.73;;;3.73;;
72109;SDS011;59983;52.010;5.420;2023-09-18T09:53:13;3.85;;;3.33;;
72109;SDS011;59983;52.010;5.420;2023-09-18T09:55:40;3.70;;;3.50;;
72109;SDS011;59983;52.010;5.420;2023-09-18T09:58:08;3.65;;;3.05;;
72109;SDS011;59983;52.010;5.420;2023-09-18T10:00:39;6.10;;;3.42;;
72109;SDS011;59983;52.010;5.420;2023-09-18T10:03:13;3.30;;;3.10;;
72109;SDS011;59983;52.010;5.420;2023-09-18T10:05:42;7.32;;;2.72;;
72109;SDS011;59983;52.010;5.420;2023-09-18T10:08:18;3.42;;;2.92;;
72109;SDS011;59983;52.010;5.420;2023-09-18T10:10:49;3.53;;;3.22;;
72109;SDS011;59983;52.010;5.420;2023-09-18T10:13:27;3.65;;;3.42;;
72109;SDS011;59983;52.010;5.420;2023-09-18T10:16:16;4.47;;;4.07;;
72109;SDS011;59983;52.010;5.420;2023-09-18T10:18:53;5.20;;;4.68;;
72109;SDS011;59983;52.010;5.420;2023-09-18T10:24:06;5.47;;;4.97;;
72109;SDS011;59983;52.010;5.420;2023-09-18T10:29:22;6.27;;;5.67;;
72109;SDS011;59983;52.010;5.420;2023-09-18T10:31:52;8.65;;;7.78;;
72109;SDS011;59983;52.010;5.420;2023-09-18T10:34:20;8.38;;;7.57;;
72109;SDS011;59983;52.010;5.420;2023-09-18T10:36:48;8.85;;;8.23;;
72109;SDS011;59983;52.010;5.420;2023-09-18T10:39:17;8.90;;;8.20;;
72109;SDS011;59983;52.010;5.420;2023-09-18T10:41:53;8.80;;;8.03;;
72109;SDS011;59983;52.010;5.420;2023-09-18T10:44:21;9.63;;;8.63;;
72109;SDS011;59983;52.010;5.420;2023-09-18T10:46:50;10.52;;;8.35;;
72109;SDS011;59983;52.010;5.420;2023-09-18T10:49:20;9.93;;;9.13;;
72109;SDS011;59983;52.010;5.420;2023-09-18T10:51:48;9.23;;;8.52;;
72109;SDS011;59983;52.010;5.420;2023-09-18T10:54:28;9.83;;;8.53;;
72109;SDS011;59983;52.010;5.420;2023-09-18T10:56:56;11.02;;;8.52;;
72109;SDS011;59983;52.010;5.420;2023-09-18T10:59:24;11.27;;;8.77;;
72109;SDS011;59983;52.010;5.420;2023-09-18T11:01:50;8.35;;;7.55;;
72109;SDS011;59983;52.010;5.420;2023-09-18T11:04:20;9.60;;;8.65;;
72109;SDS011;59983;52.010;5.420;2023-09-18T11:09:21;9.63;;;8.50;;
72109;SDS011;59983;52.010;5.420;2023-09-18T11:12:08;9.75;;;8.63;;
72109;SDS011;59983;52.010;5.420;2023-09-18T11:14:42;10.38;;;9.35;;
72109;SDS011;59983;52.010;5.420;2023-09-18T11:17:36;12.68;;;8.75;;
72109;SDS011;59983;52.010;5.420;2023-09-18T11:22:47;9.70;;;8.77;;
72109;SDS011;59983;52.010;5.420;2023-09-18T11:30:50;8.40;;;7.65;;
72109;SDS011;59983;52.010;5.420;2023-09-18T11:33:36;8.60;;;7.80;;
72109;SDS011;59983;52.010;5.420;2023-09-18T11:36:09;9.55;;;6.70;;
72109;SDS011;59983;52.010;5.420;2023-09-18T11:38:51;7.43;;;6.15;;
72109;SDS011;59983;52.010;5.420;2023-09-18T11:41:23;5.97;;;5.25;;
72109;SDS011;59983;52.010;5.420;2023-09-18T11:43:52;5.20;;;4.70;;
72109;SDS011;59983;52.010;5.420;2023-09-18T11:46:46;5.73;;;4.53;;
72109;SDS011;59983;52.010;5.420;2023-09-18T11:49:15;5.75;;;4.55;;
72109;SDS011;59983;52.010;5.420;2023-09-18T11:51:48;8.52;;;4.63;;
72109;SDS011;59983;52.010;5.420;2023-09-18T11:54:17;5.30;;;4.60;;
72109;SDS011;59983;52.010;5.420;2023-09-18T11:56:44;7.13;;;4.45;;
72109;SDS011;59983;52.010;5.420;2023-09-18T11:59:11;5.90;;;5.10;;
72109;SDS011;59983;52.010;5.420;2023-09-18T12:01:38;5.03;;;4.55;;
72109;SDS011;59983;52.010;5.420;2023-09-18T12:04:12;7.45;;;5.57;;
72109;SDS011;59983;52.010;5.420;2023-09-18T12:06:40;8.88;;;5.03;;
72109;SDS011;59983;52.010;5.420;2023-09-18T12:09:07;5.50;;;4.53;;
72109;SDS011;59983;52.010;5.420;2023-09-18T12:11:35;4.90;;;4.10;;
72109;SDS011;59983;52.010;5.420;2023-09-18T12:14:02;5.03;;;4.47;;
72109;SDS011;59983;52.010;5.420;2023-09-18T12:16:30;7.93;;;4.53;;
72109;SDS011;59983;52.010;5.420;2023-09-18T12:19:04;5.68;;;4.55;;
72109;SDS011;59983;52.010;5.420;2023-09-18T12:21:32;4.53;;;4.10;;
72109;SDS011;59983;52.010;5.420;2023-09-18T12:24:06;5.73;;;4.47;;
72109;SDS011;59983;52.010;5.420;2023-09-18T12:26:32;4.78;;;4.47;;
72109;SDS011;59983;52.010;5.420;2023-09-18T12:29:00;7.88;;;4.80;;
72109;SDS011;59983;52.010;5.420;2023-09-18T12:31:26;5.38;;;4.95;;
72109;SDS011;59983;52.010;5.420;2023-09-18T12:33:53;5.55;;;5.10;;
72109;SDS011;59983;52.010;5.420;2023-09-18T12:36:20;5.90;;;5.30;;
72109;SDS011;59983;52.010;5.420;2023-09-18T12:38:56;6.07;;;5.40;;
72109;SDS011;59983;52.010;5.420;2023-09-18T12:41:29;6.03;;;5.00;;
72109;SDS011;59983;52.010;5.420;2023-09-18T12:43:58;5.18;;;4.75;;
72109;SDS011;59983;52.010;5.420;2023-09-18T12:46:25;8.00;;;5.40;;
72109;SDS011;59983;52.010;5.420;2023-09-18T12:48:52;4.67;;;4.13;;
72109;SDS011;59983;52.010;5.420;2023-09-18T12:51:28;5.95;;;5.35;;
72109;SDS011;59983;52.010;5.420;2023-09-18T12:54:01;5.30;;;4.57;;
72109;SDS011;59983;52.010;5.420;2023-09-18T12:56:34;8.70;;;4.78;;
72109;SDS011;59983;52.010;5.420;2023-09-18T12:59:06;4.50;;;4.10;;
72109;SDS011;59983;52.010;5.420;2023-09-18T13:01:45;7.87;;;3.93;;
72109;SDS011;59983;52.010;5.420;2023-09-18T13:04:14;4.07;;;3.55;;
72109;SDS011;59983;52.010;5.420;2023-09-18T13:06:41;6.90;;;4.22;;
72109;SDS011;59983;52.010;5.420;2023-09-18T13:09:17;7.28;;;3.58;;
72109;SDS011;59983;52.010;5.420;2023-09-18T13:11:52;3.95;;;3.45;;
72109;SDS011;59983;52.010;5.420;2023-09-18T13:14:20;3.90;;;3.33;;
72109;SDS011;59983;52.010;5.420;2023-09-18T13:16:47;4.47;;;3.33;;
72109;SDS011;59983;52.010;5.420;2023-09-18T13:19:13;3.97;;;3.55;;
72109;SDS011;59983;52.010;5.420;2023-09-18T13:21:49;5.35;;;3.20;;
72109;SDS011;59983;52.010;5.420;2023-09-18T13:24:26;3.40;;;3.03;;
72109;SDS011;59983;52.010;5.420;2023-09-18T13:26:55;7.43;;;3.00;;
72109;SDS011;59983;52.010;5.420;2023-09-18T13:29:23;3.17;;;2.85;;
72109;SDS011;59983;52.010;5.420;2023-09-18T13:31:50;3.53;;;2.58;;
72109;SDS011;59983;52.010;5.420;2023-09-18T13:34:17;3.40;;;2.38;;
72109;SDS011;59983;52.010;5.420;2023-09-18T13:36:45;3.35;;;2.50;;
72109;SDS011;59983;52.010;5.420;2023-09-18T13:39:12;4.50;;;2.40;;
72109;SDS011;59983;52.010;5.420;2023-09-18T13:41:39;5.60;;;2.33;;
72109;SDS011;59983;52.010;5.420;2023-09-18T13:44:10;4.05;;;2.30;;
72109;SDS011;59983;52.010;5.420;2023-09-18T13:46:37;4.00;;;1.85;;
72109;SDS011;59983;52.010;5.420;2023-09-18T13:49:04;2.55;;;2.03;;
72109;SDS011;59983;52.010;5.420;2023-09-18T13:51:31;2.90;;;1.80;;
72109;SDS011;59983;52.010;5.420;2023-09-18T13:53:59;2.83;;;1.50;;
72109;SDS011;59983;52.010;5.420;2023-09-18T13:56:26;2.47;;;1.45;;
72109;SDS011;59983;52.010;5.420;2023-09-18T13:58:55;5.80;;;1.67;;
72109;SDS011;59983;52.010;5.420;2023-09-18T14:01:25;2.38;;;1.08;;
72109;SDS011;59983;52.010;5.420;2023-09-18T14:03:53;4.10;;;1.57;;
72109;SDS011;59983;52.010;5.420;2023-09-18T14:06:20;4.85;;;1.73;;
72109;SDS011;59983;52.010;5.420;2023-09-18T14:08:48;1.70;;;1.27;;
72109;SDS011;59983;52.010;5.420;2023-09-18T14:11:15;6.65;;;1.40;;
72109;SDS011;59983;52.010;5.420;2023-09-18T14:13:42;4.07;;;2.10;;
72109;SDS011;59983;52.010;5.420;2023-09-18T14:16:09;3.53;;;1.63;;
72109;SDS011;59983;52.010;5.420;2023-09-18T14:18:37;3.10;;;1.77;;
72109;SDS011;59983;52.010;5.420;2023-09-18T14:21:03;2.75;;;1.70;;
72109;SDS011;59983;52.010;5.420;2023-09-18T14:23:31;2.30;;;1.85;;
72109;SDS011;59983;52.010;5.420;2023-09-18T14:26:00;4.30;;;1.98;;
72109;SDS011;59983;52.010;5.420;2023-09-18T14:28:27;1.90;;;1.70;;
72109;SDS011;59983;52.010;5.420;2023-09-18T14:30:54;2.13;;;1.92;;
72109;SDS011;59983;52.010;5.420;2023-09-18T14:33:20;2.97;;;2.33;;
72109;SDS011;59983;52.010;5.420;2023-09-18T14:35:47;3.70;;;2.30;;
72109;SDS011;59983;52.010;5.420;2023-09-18T14:38:14;3.80;;;2.13;;
72109;SDS011;59983;52.010;5.420;2023-09-18T14:40:41;2.80;;;2.30;;
72109;SDS011;59983;52.010;5.420;2023-09-18T14:43:08;2.95;;;2.45;;
72109;SDS011;59983;52.010;5.420;2023-09-18T14:45:35;3.20;;;2.88;;
72109;SDS011;59983;52.010;5.420;2023-09-18T14:48:01;4.20;;;2.55;;
72109;SDS011;59983;52.010;5.420;2023-09-18T14:50:28;5.38;;;2.50;;
72109;SDS011;59983;52.010;5.420;2023-09-18T14:52:55;5.33;;;2.50;;
72109;SDS011;59983;52.010;5.420;2023-09-18T14:55:21;2.80;;;2.60;;
72109;SDS011;59983;52.010;5.420;2023-09-18T14:57:49;10.10;;;2.92;;
72109;SDS011;59983;52.010;5.420;2023-09-18T15:00:20;3.13;;;2.22;;